createdAt,value
2019-05-17T00:01:41.644Z,8.27
2019-05-17T00:04:11.960Z,10.30
2019-05-17T00:06:42.225Z,13.03
2019-05-17T00:09:12.890Z,10.47
2019-05-17T00:11:43.661Z,8.53
2019-05-17T00:14:13.948Z,7.40
2019-05-17T00:16:46.799Z,8.20
2019-05-17T00:19:18.726Z,8.33
2019-05-17T00:21:49.005Z,8.77
2019-05-17T00:24:19.350Z,7.50
2019-05-17T00:26:49.705Z,10.07
2019-05-17T00:29:20.340Z,10.37
2019-05-17T00:31:50.999Z,7.20
2019-05-17T00:34:27.078Z,9.63
2019-05-17T00:36:57.535Z,8.63
2019-05-17T00:39:28.641Z,10.50
2019-05-17T00:42:00.819Z,9.57
2019-05-17T00:44:31.086Z,12.53
2019-05-17T00:47:01.448Z,10.63
2019-05-17T00:49:31.838Z,8.53
2019-05-17T00:52:02.442Z,9.83
2019-05-17T00:54:33.051Z,10.07
2019-05-17T00:57:10.425Z,8.30
2019-05-17T00:59:41.837Z,5.53
2019-05-17T01:02:17.378Z,6.00
2019-05-17T01:04:48.596Z,12.17
2019-05-17T01:07:18.878Z,15.00
2019-05-17T01:09:49.424Z,6.83
2019-05-17T01:12:20.182Z,10.90
2019-05-17T01:14:50.473Z,11.10
2019-05-17T01:17:22.001Z,8.67
2019-05-17T01:19:54.130Z,9.10
2019-05-17T01:22:26.294Z,10.80
2019-05-17T01:24:56.986Z,11.27
2019-05-17T01:27:27.298Z,8.43
2019-05-17T01:30:02.807Z,11.50
2019-05-17T01:32:33.105Z,10.90
2019-05-17T01:35:03.540Z,10.77
2019-05-17T01:37:36.988Z,10.90
2019-05-17T01:40:07.888Z,8.33
2019-05-17T01:42:38.171Z,8.17
2019-05-17T01:45:09.649Z,10.67
2019-05-17T01:47:39.975Z,12.83
2019-05-17T01:50:11.146Z,11.13
2019-05-17T01:52:41.448Z,9.87
2019-05-17T01:55:13.961Z,7.20
2019-05-17T01:57:47.398Z,11.63
2019-05-17T02:00:17.819Z,7.63
2019-05-17T02:02:49.923Z,13.90
2019-05-17T02:05:24.245Z,11.43
2019-05-17T02:07:56.826Z,9.07
2019-05-17T02:10:27.137Z,14.63
2019-05-17T02:12:57.552Z,10.07
2019-05-17T02:15:27.797Z,9.77
2019-05-17T02:17:58.122Z,8.00
2019-05-17T02:20:28.517Z,7.63
2019-05-17T02:22:58.939Z,9.37
2019-05-17T02:25:29.200Z,10.57
2019-05-17T02:28:01.557Z,8.27
2019-05-17T02:30:33.781Z,8.63
2019-05-17T02:33:04.570Z,9.50
2019-05-17T02:35:36.163Z,9.73
2019-05-17T02:38:06.427Z,9.57
2019-05-17T02:40:36.701Z,12.70
2019-05-17T02:43:08.657Z,8.37
2019-05-17T02:45:43.286Z,10.37
2019-05-17T02:48:13.355Z,9.70
2019-05-17T02:50:48.184Z,10.33
2019-05-17T02:53:16.653Z,9.50
2019-05-17T02:55:46.944Z,8.50
2019-05-17T02:58:17.268Z,8.20
2019-05-17T03:00:47.894Z,9.57
2019-05-17T03:03:19.605Z,8.83
2019-05-17T03:05:53.611Z,9.63
2019-05-17T03:08:23.667Z,8.37
2019-05-17T03:10:54.170Z,8.03
2019-05-17T03:13:25.020Z,7.87
2019-05-17T03:15:55.358Z,7.80
2019-05-17T03:18:25.681Z,8.90
2019-05-17T03:20:56.854Z,11.17
2019-05-17T03:23:27.708Z,8.40
2019-05-17T03:25:57.952Z,7.60
2019-05-17T03:28:28.848Z,9.00
2019-05-17T03:30:59.149Z,7.20
2019-05-17T03:33:35.876Z,10.63
2019-05-17T03:36:06.221Z,9.93
2019-05-17T03:38:36.911Z,7.50
2019-05-17T03:41:18.744Z,9.13
2019-05-17T03:43:41.282Z,9.40
2019-05-17T03:46:13.824Z,8.47
2019-05-17T03:48:43.771Z,7.67
2019-05-17T03:51:14.145Z,8.03
2019-05-17T03:53:45.267Z,7.53
2019-05-17T03:56:16.119Z,8.53
2019-05-17T03:58:46.428Z,10.33
2019-05-17T04:01:16.720Z,8.50
2019-05-17T04:03:47.855Z,6.37
2019-05-17T04:06:18.087Z,9.30
2019-05-17T04:08:48.369Z,11.30
2019-05-17T04:11:27.834Z,5.93
2019-05-17T04:13:53.731Z,7.70
2019-05-17T04:16:25.571Z,7.97
2019-05-17T04:18:56.145Z,7.83
2019-05-17T04:21:26.909Z,6.90
2019-05-17T04:23:57.188Z,6.13
2019-05-17T04:26:27.448Z,6.10
2019-05-17T04:28:57.737Z,5.83
2019-05-17T04:31:30.744Z,4.70
2019-05-17T04:34:03.060Z,5.77
2019-05-17T04:36:33.711Z,4.75
2019-05-17T04:39:07.091Z,5.97
2019-05-17T04:41:45.309Z,6.28
2019-05-17T04:44:12.848Z,5.17
2019-05-17T04:46:43.477Z,10.38
2019-05-17T04:49:16.821Z,4.12
2019-05-17T04:51:47.312Z,3.43
2019-05-17T04:54:22.526Z,7.10
2019-05-17T04:56:53.240Z,2.42
2019-05-17T04:59:24.408Z,5.10
2019-05-17T05:01:55.047Z,5.47
2019-05-17T05:04:27.670Z,4.83
2019-05-17T05:06:58.532Z,2.52
2019-05-17T05:09:32.668Z,6.42
2019-05-17T05:12:06.179Z,7.30
2019-05-17T05:14:36.133Z,2.67
2019-05-17T05:17:06.588Z,4.08
2019-05-17T05:19:37.269Z,2.33
2019-05-17T05:22:07.595Z,2.50
2019-05-17T05:24:37.955Z,3.45
2019-05-17T05:27:08.556Z,2.55
2019-05-17T05:29:41.545Z,1.87
2019-05-17T05:32:13.145Z,3.12
2019-05-17T05:34:46.323Z,2.85
2019-05-17T05:37:16.928Z,2.72
2019-05-17T05:39:47.556Z,2.55
2019-05-17T05:42:17.856Z,1.70
2019-05-17T05:44:48.171Z,5.10
2019-05-17T05:47:18.469Z,4.10
2019-05-17T05:49:48.869Z,7.55
2019-05-17T05:52:22.005Z,1.50
2019-05-17T05:54:52.356Z,4.42
2019-05-17T05:57:22.689Z,4.70
2019-05-17T05:59:53.014Z,5.22
2019-05-17T06:02:23.304Z,2.72
2019-05-17T06:04:53.640Z,2.47
2019-05-17T06:07:23.997Z,1.60
2019-05-17T06:09:54.303Z,3.37
2019-05-17T06:12:28.111Z,5.90
2019-05-17T06:14:57.897Z,1.65
2019-05-17T06:17:28.209Z,3.95
2019-05-17T06:19:59.319Z,5.25
2019-05-17T06:22:31.850Z,2.05
2019-05-17T06:25:03.864Z,2.05
2019-05-17T06:27:34.271Z,1.50
2019-05-17T06:30:08.327Z,1.27
2019-05-17T06:32:38.702Z,2.30
2019-05-17T06:35:09.428Z,3.40
2019-05-17T06:37:41.955Z,1.60
2019-05-17T06:42:45.638Z,7.22
2019-05-17T06:45:16.575Z,3.70
2019-05-17T06:47:47.490Z,1.10
2019-05-17T06:50:18.322Z,3.75
2019-05-17T06:52:53.259Z,1.92
2019-05-17T06:55:24.298Z,4.00
2019-05-17T06:57:54.742Z,6.22
2019-05-17T07:00:25.153Z,3.58
2019-05-17T07:02:55.490Z,1.15
2019-05-17T07:05:29.429Z,2.22
2019-05-17T07:08:00.276Z,6.47
2019-05-17T07:10:31.144Z,1.50
2019-05-17T07:13:02.121Z,2.62
2019-05-17T07:15:43.802Z,2.60
2019-05-17T07:18:05.909Z,3.22
2019-05-17T07:20:36.475Z,1.32
2019-05-17T07:23:06.802Z,0.90
2019-05-17T07:25:39.441Z,1.37
2019-05-17T07:28:10.754Z,1.20
2019-05-17T07:30:41.288Z,1.92
2019-05-17T07:33:11.759Z,5.60
2019-05-17T07:35:42.107Z,2.12
2019-05-17T07:38:15.455Z,7.35
2019-05-17T07:40:49.961Z,1.02
2019-05-17T07:43:20.776Z,5.28
2019-05-17T07:45:54.239Z,4.33
2019-05-17T07:48:24.668Z,1.98
2019-05-17T07:50:54.964Z,1.72
2019-05-17T07:53:25.276Z,0.82
2019-05-17T07:55:55.579Z,3.20
2019-05-17T07:58:30.020Z,4.75
2019-05-17T08:01:02.194Z,3.08
2019-05-17T08:03:34.156Z,3.35
2019-05-17T08:06:04.911Z,2.45
2019-05-17T08:08:35.782Z,2.17
2019-05-17T08:11:06.112Z,3.15
2019-05-17T08:13:39.680Z,2.02
2019-05-17T08:16:10.358Z,6.55
2019-05-17T08:18:40.772Z,6.42
2019-05-17T08:21:11.344Z,2.27
2019-05-17T08:23:44.344Z,1.52
2019-05-17T08:26:14.651Z,6.80
2019-05-17T08:28:44.978Z,1.60
2019-05-17T08:31:17.266Z,4.78
2019-05-17T08:33:49.678Z,5.25
2019-05-17T08:36:20.118Z,2.10
2019-05-17T08:38:50.927Z,2.00
2019-05-17T08:41:21.251Z,5.17
2019-05-17T08:43:51.670Z,12.20
2019-05-17T08:46:24.659Z,8.33
2019-05-17T08:48:55.088Z,3.85
2019-05-17T08:51:27.637Z,7.47
2019-05-17T08:54:00.034Z,4.42
2019-05-17T08:56:31.921Z,4.30
2019-05-17T08:59:02.411Z,4.25
2019-05-17T09:01:38.235Z,2.62
2019-05-17T09:04:09.197Z,4.08
2019-05-17T09:06:39.827Z,3.00
2019-05-17T09:09:10.572Z,3.77
2019-05-17T09:11:40.876Z,3.60
2019-05-17T09:14:11.299Z,6.40
2019-05-17T09:16:42.055Z,7.12
2019-05-17T09:19:12.493Z,3.08
2019-05-17T09:21:42.882Z,4.65
2019-05-17T09:24:15.294Z,3.00
2019-05-17T09:26:49.180Z,3.80
2019-05-17T09:29:20.079Z,4.12
2019-05-17T09:31:50.573Z,3.10
2019-05-17T09:34:20.946Z,4.05
2019-05-17T09:36:54.628Z,2.40
2019-05-17T09:39:24.752Z,4.72
2019-05-17T09:41:55.068Z,6.40
2019-05-17T09:44:25.392Z,6.97
2019-05-17T09:46:55.810Z,2.62
2019-05-17T09:49:26.222Z,5.25
2019-05-17T09:51:57.243Z,4.40
2019-05-17T09:54:41.691Z,3.27
2019-05-17T09:57:00.450Z,4.25
2019-05-17T09:59:30.997Z,1.27
2019-05-17T10:02:03.054Z,2.87
2019-05-17T10:04:33.398Z,1.45
2019-05-17T10:07:10.191Z,3.95
2019-05-17T10:09:42.101Z,10.03
2019-05-17T10:12:14.552Z,8.43
2019-05-17T10:14:44.904Z,3.00
2019-05-17T10:17:16.073Z,5.87
2019-05-17T10:19:46.532Z,3.60
2019-05-17T10:22:19.851Z,1.98
2019-05-17T10:24:49.805Z,2.85
2019-05-17T10:27:25.628Z,3.62
2019-05-17T10:29:55.973Z,2.45
2019-05-17T10:32:26.274Z,1.85
2019-05-17T10:34:56.596Z,3.05
2019-05-17T10:37:30.197Z,4.60
2019-05-17T10:40:00.018Z,8.30
2019-05-17T10:42:30.729Z,2.20
2019-05-17T10:45:01.135Z,5.40
2019-05-17T10:47:31.761Z,4.55
2019-05-17T10:50:02.793Z,5.42
2019-05-17T10:52:33.078Z,5.83
2019-05-17T10:55:03.430Z,2.77
2019-05-17T10:57:38.359Z,3.70
2019-05-17T11:00:10.159Z,2.20
2019-05-17T11:02:40.689Z,2.40
2019-05-17T11:05:11.215Z,2.55
2019-05-17T11:07:41.843Z,2.67
2019-05-17T11:10:12.592Z,2.83
2019-05-17T11:12:42.925Z,1.60
2019-05-17T11:15:14.094Z,2.00
2019-05-17T11:17:44.386Z,13.30
2019-05-17T11:20:15.263Z,1.65
2019-05-17T11:22:45.965Z,6.62
2019-05-17T11:25:19.243Z,1.60
2019-05-17T11:27:51.491Z,4.53
2019-05-17T11:30:21.783Z,3.42
2019-05-17T11:32:52.099Z,1.72
2019-05-17T11:35:24.674Z,3.90
2019-05-17T11:37:54.797Z,4.83
2019-05-17T11:40:26.460Z,2.00
2019-05-17T11:42:59.187Z,1.80
2019-05-17T11:45:32.589Z,3.58
2019-05-17T11:48:01.963Z,1.57
2019-05-17T11:50:32.396Z,4.92
2019-05-17T11:53:03.063Z,1.52
2019-05-17T11:55:35.727Z,3.08
2019-05-17T11:58:06.217Z,9.20
2019-05-17T12:00:38.105Z,4.97
2019-05-17T12:03:10.311Z,2.95
2019-05-17T12:05:40.774Z,2.70
2019-05-17T12:08:11.111Z,5.55
2019-05-17T12:10:41.593Z,3.37
2019-05-17T12:13:11.983Z,9.63
2019-05-17T12:15:51.599Z,2.50
2019-05-17T12:18:23.422Z,0.78
2019-05-17T12:20:53.728Z,2.90
2019-05-17T12:23:24.078Z,1.30
2019-05-17T12:25:54.421Z,0.93
2019-05-17T12:28:24.759Z,2.65
2019-05-17T12:30:57.558Z,1.60
2019-05-17T12:33:29.999Z,2.72
2019-05-17T12:36:00.431Z,0.95
2019-05-17T12:38:30.841Z,1.17
2019-05-17T12:41:01.514Z,2.90
2019-05-17T12:43:32.143Z,2.70
2019-05-17T12:46:02.615Z,3.12
2019-05-17T12:48:38.917Z,4.95
2019-05-17T12:51:09.269Z,2.58
2019-05-17T12:53:39.639Z,2.90
2019-05-17T12:58:35.367Z,3.92
2019-05-17T13:01:05.993Z,2.77
2019-05-17T13:03:37.967Z,2.80
2019-05-17T13:06:08.513Z,1.35
2019-05-17T13:08:43.027Z,1.90
2019-05-17T13:11:13.385Z,1.95
2019-05-17T13:13:43.966Z,2.10
2019-05-17T13:16:19.295Z,3.37
2019-05-17T13:18:49.907Z,1.95
2019-05-17T13:21:30.585Z,2.27
2019-05-17T13:24:07.927Z,3.52
2019-05-17T13:26:38.579Z,5.00
2019-05-17T13:29:10.014Z,4.97
2019-05-17T13:31:42.665Z,2.20
2019-05-17T13:34:13.000Z,1.20
2019-05-17T13:36:44.704Z,5.30
2019-05-17T13:39:16.778Z,1.27
2019-05-17T13:41:47.852Z,3.42
2019-05-17T13:44:20.763Z,4.58
2019-05-17T13:46:53.256Z,7.35
2019-05-17T13:49:23.567Z,4.55
2019-05-17T13:51:54.240Z,2.20
2019-05-17T13:54:36.169Z,2.58
2019-05-17T13:57:07.604Z,2.77
2019-05-17T13:59:40.508Z,2.20
2019-05-17T14:02:10.813Z,3.00
2019-05-17T14:04:41.913Z,1.82
2019-05-17T14:07:12.759Z,3.27
2019-05-17T14:09:43.150Z,4.90
2019-05-17T14:12:13.853Z,3.25
2019-05-17T14:14:49.108Z,4.25
2019-05-17T14:17:19.863Z,2.27
2019-05-17T14:19:51.282Z,1.65
2019-05-17T14:22:24.005Z,2.15
2019-05-17T14:24:54.616Z,2.87
2019-05-17T14:27:25.006Z,5.78
2019-05-17T14:29:56.754Z,1.10
2019-05-17T14:32:27.068Z,0.60
2019-05-17T14:34:57.393Z,0.80
2019-05-17T14:37:28.082Z,2.12
2019-05-17T14:39:59.676Z,0.90
2019-05-17T14:42:32.288Z,3.20
2019-05-17T14:45:07.271Z,5.17
2019-05-17T14:47:37.675Z,0.80
2019-05-17T14:50:08.699Z,1.12
2019-05-17T14:52:41.329Z,1.62
2019-05-17T14:55:12.062Z,2.87
2019-05-17T14:57:43.203Z,0.72
2019-05-17T15:00:14.629Z,3.52
2019-05-17T15:02:45.875Z,0.70
2019-05-17T15:05:16.388Z,1.20
2019-05-17T15:07:47.119Z,1.05
2019-05-17T15:10:18.811Z,2.75
2019-05-17T15:12:49.110Z,1.67
2019-05-17T15:15:28.000Z,1.75
2019-05-17T15:17:55.389Z,1.72
2019-05-17T15:20:25.767Z,4.30
2019-05-17T15:22:56.457Z,2.85
2019-05-17T15:25:26.736Z,2.67
2019-05-17T15:27:57.368Z,2.40
2019-05-17T15:30:29.864Z,1.35
2019-05-17T15:33:03.228Z,1.87
2019-05-17T15:35:37.750Z,3.77
2019-05-17T15:38:11.330Z,6.10
2019-05-17T15:40:42.095Z,2.33
2019-05-17T15:43:12.412Z,3.67
2019-05-17T15:45:42.868Z,2.77
2019-05-17T15:48:13.198Z,2.33
2019-05-17T15:50:45.044Z,1.15
2019-05-17T15:53:15.423Z,4.03
2019-05-17T15:55:45.821Z,4.87
2019-05-17T15:58:17.377Z,1.92
2019-05-17T16:00:52.214Z,1.27
2019-05-17T16:03:22.612Z,1.05
2019-05-17T16:05:55.691Z,1.57
2019-05-17T16:08:29.574Z,3.42
2019-05-17T16:11:01.213Z,2.37
2019-05-17T16:13:34.343Z,4.35
2019-05-17T16:16:05.033Z,2.75
2019-05-17T16:18:36.776Z,4.10
2019-05-17T16:21:09.189Z,1.98
2019-05-17T16:23:40.942Z,1.67
2019-05-17T16:26:11.556Z,1.80
2019-05-17T16:28:42.676Z,1.87
2019-05-17T16:31:13.000Z,5.72
2019-05-17T16:33:43.537Z,7.50
2019-05-17T16:36:14.380Z,6.03
2019-05-17T16:38:44.890Z,6.67
2019-05-17T16:41:15.864Z,3.37
2019-05-17T16:43:46.324Z,1.85
2019-05-17T16:46:19.260Z,4.72
2019-05-17T16:48:49.602Z,3.33
2019-05-17T16:51:21.316Z,2.62
2019-05-17T16:53:52.773Z,3.12
2019-05-17T16:56:23.158Z,6.17
2019-05-17T16:58:53.441Z,3.33
2019-05-17T17:01:23.995Z,3.05
2019-05-17T17:03:54.398Z,5.17
2019-05-17T17:06:25.382Z,2.25
2019-05-17T17:08:55.930Z,5.53
2019-05-17T17:11:28.690Z,8.03
2019-05-17T17:13:58.979Z,4.97
2019-05-17T17:16:29.386Z,2.30
2019-05-17T17:18:59.747Z,4.20
2019-05-17T17:21:30.105Z,3.92
2019-05-17T17:24:00.914Z,2.00
2019-05-17T17:26:33.633Z,2.02
2019-05-17T17:29:04.014Z,4.72
2019-05-17T17:31:34.363Z,2.52
2019-05-17T17:34:05.146Z,3.83
2019-05-17T17:36:40.322Z,5.55
2019-05-17T17:39:10.618Z,9.15
2019-05-17T17:41:41.403Z,2.45
2019-05-17T17:44:14.205Z,4.97
2019-05-17T17:46:44.479Z,2.90
2019-05-17T17:49:17.375Z,3.98
2019-05-17T17:51:47.822Z,2.98
2019-05-17T17:54:18.202Z,2.52
2019-05-17T17:56:49.175Z,3.47
2019-05-17T17:59:19.552Z,2.08
2019-05-17T18:01:50.300Z,2.30
2019-05-17T18:04:22.087Z,2.45
2019-05-17T18:06:52.452Z,5.05
2019-05-17T18:09:24.501Z,1.65
2019-05-17T18:12:05.134Z,5.17
2019-05-17T18:14:35.743Z,6.08
2019-05-17T18:17:06.072Z,3.22
2019-05-17T18:19:36.947Z,2.00
2019-05-17T18:22:07.308Z,1.67
2019-05-17T18:24:37.617Z,6.17
2019-05-17T18:27:10.408Z,5.25
2019-05-17T18:29:44.187Z,1.50
2019-05-17T18:32:21.775Z,5.80
2019-05-17T18:34:52.460Z,4.87
2019-05-17T18:37:22.725Z,2.98
2019-05-17T18:39:53.110Z,2.20
2019-05-17T18:42:23.431Z,1.95
2019-05-17T18:44:54.625Z,1.70
2019-05-17T18:47:27.851Z,2.52
2019-05-17T18:49:58.519Z,1.75
2019-05-17T18:52:28.846Z,3.72
2019-05-17T18:54:59.141Z,2.00
2019-05-17T18:57:32.348Z,2.20
2019-05-17T19:00:04.470Z,2.70
2019-05-17T19:02:35.447Z,4.10
2019-05-17T19:05:06.242Z,1.40
2019-05-17T19:07:38.195Z,3.00
2019-05-17T19:10:09.969Z,2.87
2019-05-17T19:12:40.282Z,3.25
2019-05-17T19:15:11.146Z,4.35
2019-05-17T19:17:43.180Z,2.15
2019-05-17T19:20:15.195Z,2.33
2019-05-17T19:22:47.713Z,5.50
2019-05-17T19:25:22.119Z,2.55
2019-05-17T19:27:52.484Z,1.47
2019-05-17T19:30:25.583Z,3.75
2019-05-17T19:32:55.900Z,2.92
2019-05-17T19:35:26.876Z,2.00
2019-05-17T19:37:57.787Z,5.00
2019-05-17T19:40:28.141Z,2.75
2019-05-17T19:42:59.403Z,6.80
2019-05-17T19:45:29.683Z,4.83
2019-05-17T19:48:00.023Z,2.22
2019-05-17T19:50:30.796Z,5.30
2019-05-17T19:53:10.475Z,2.85
2019-05-17T19:55:40.814Z,2.12
2019-05-17T19:58:11.449Z,2.40
2019-05-17T20:00:41.761Z,1.98
2019-05-17T20:03:12.360Z,4.42
2019-05-17T20:05:45.154Z,2.87
2019-05-17T20:08:18.308Z,2.45
2019-05-17T20:10:53.540Z,4.55
2019-05-17T20:13:24.041Z,5.60
2019-05-17T20:15:54.768Z,5.22
2019-05-17T20:18:25.087Z,9.03
2019-05-17T20:20:58.919Z,4.50
2019-05-17T20:23:43.630Z,4.67
2019-05-17T20:26:13.910Z,3.47
2019-05-17T20:28:50.442Z,2.98
2019-05-17T20:31:23.069Z,6.47
2019-05-17T20:33:54.748Z,3.52
2019-05-17T20:36:25.103Z,7.17
2019-05-17T20:38:55.584Z,2.33
2019-05-17T20:41:25.856Z,2.95
2019-05-17T20:43:56.471Z,7.10
2019-05-17T20:46:30.667Z,4.55
2019-05-17T20:49:02.003Z,2.77
2019-05-17T20:51:32.561Z,2.40
2019-05-17T20:54:03.245Z,3.08
2019-05-17T20:56:36.222Z,7.08
2019-05-17T20:59:08.999Z,6.30
2019-05-17T21:01:39.386Z,3.27
2019-05-17T21:04:09.682Z,2.40
2019-05-17T21:06:40.262Z,6.92
2019-05-17T21:09:11.011Z,5.97
2019-05-17T21:11:43.618Z,3.37
2019-05-17T21:14:14.524Z,3.70
2019-05-17T21:16:44.808Z,3.12
2019-05-17T21:19:15.422Z,4.50
2019-05-17T21:22:00.270Z,3.33
2019-05-17T21:24:31.311Z,4.60
2019-05-17T21:27:01.620Z,2.85
2019-05-17T21:29:31.979Z,7.95
2019-05-17T21:32:02.571Z,4.62
2019-05-17T21:34:32.931Z,2.40
2019-05-17T21:37:03.194Z,5.12
2019-05-17T21:39:33.532Z,4.85
2019-05-17T21:42:04.760Z,4.10
2019-05-17T21:44:35.099Z,4.70
2019-05-17T21:47:06.675Z,5.55
2019-05-17T21:49:36.937Z,5.15
2019-05-17T21:52:07.285Z,2.92
2019-05-17T21:54:40.992Z,4.20
2019-05-17T21:57:11.308Z,3.37
2019-05-17T21:59:41.905Z,5.78
2019-05-17T22:02:12.238Z,4.12
2019-05-17T22:04:42.573Z,4.97
2019-05-17T22:07:13.015Z,6.58
2019-05-17T22:09:45.156Z,3.90
2019-05-17T22:12:15.369Z,4.83
2019-05-17T22:14:45.741Z,2.60
2019-05-17T22:17:17.852Z,3.75
2019-05-17T22:19:48.156Z,3.83
2019-05-17T22:22:18.468Z,2.95
2019-05-17T22:24:48.843Z,12.28
2019-05-17T22:27:19.107Z,3.15
2019-05-17T22:29:49.445Z,3.70
2019-05-17T22:32:21.981Z,2.62
2019-05-17T22:35:00.799Z,4.67
2019-05-17T22:37:25.847Z,5.20
2019-05-17T22:39:57.356Z,2.65
2019-05-17T22:42:29.357Z,3.42
2019-05-17T22:44:59.727Z,3.10
2019-05-17T22:47:33.535Z,2.47
2019-05-17T22:50:04.153Z,3.52
2019-05-17T22:52:34.833Z,5.03
2019-05-17T22:55:07.245Z,3.12
2019-05-17T22:57:37.764Z,3.17
2019-05-17T23:00:11.667Z,4.97
2019-05-17T23:02:45.476Z,3.37
2019-05-17T23:05:15.969Z,4.60
2019-05-17T23:07:46.576Z,3.80
2019-05-17T23:10:16.858Z,4.53
2019-05-17T23:12:47.825Z,3.60
2019-05-17T23:15:18.112Z,6.60
2019-05-17T23:17:48.414Z,2.90
2019-05-17T23:20:18.731Z,6.00
2019-05-17T23:22:49.637Z,4.42
2019-05-17T23:25:20.224Z,5.22
2019-05-17T23:27:51.759Z,7.10
2019-05-17T23:30:23.236Z,6.33
2019-05-17T23:32:53.515Z,2.47
2019-05-17T23:35:23.813Z,2.55
2019-05-17T23:37:54.135Z,4.90
2019-05-17T23:40:24.421Z,3.37
2019-05-17T23:42:56.748Z,3.50
2019-05-17T23:45:28.269Z,4.12
2019-05-17T23:47:59.359Z,2.98
2019-05-17T23:50:29.653Z,4.20
2019-05-17T23:53:00.002Z,7.67
2019-05-17T23:55:30.337Z,4.58
2019-05-17T23:58:00.697Z,3.02
